Time;durP1;ratioP1;P1;durP2;ratioP2;P2;SDS_P1;SDS_P2;PMS_P1;PMS_P2;Temp;Humidity;BMP_temperature;BMP_pressure;BME280_temperature;BME280_humidity;BME280_pressure;Samples;Min_cycle;Max_cycle;Signal;HPM_P1;HPM_P2
2022/10/23 00:01:52;;;;;;;7.63;4.53;;;;;;;;;;5156561;27;20054;-85
2022/10/23 00:04:24;;;;;;;6.65;3.88;;;;;;;;;;5154532;27;20064;-85
2022/10/23 00:07:02;;;;;;;13.57;4.82;;;;;;;;;;5161042;27;20150;-85
2022/10/23 00:09:32;;;;;;;8.15;4.93;;;;;;;;;;5157402;27;20077;-85
2022/10/23 00:12:02;;;;;;;10.23;5.00;;;;;;;;;;5159848;27;20100;-85
2022/10/23 00:14:32;;;;;;;15.95;4.35;;;;;;;;;;5158360;27;20051;-85
2022/10/23 00:17:03;;;;;;;6.60;3.55;;;;;;;;;;5159578;27;20081;-85
2022/10/23 00:19:50;;;;;;;9.98;2.75;;;;;;;;;;5160550;27;20046;-85
2022/10/23 00:22:30;;;;;;;11.98;2.80;;;;;;;;;;5161156;27;20047;-85
2022/10/23 00:25:02;;;;;;;23.15;3.28;;;;;;;;;;5158338;27;20096;-84
2022/10/23 00:27:33;;;;;;;6.65;2.63;;;;;;;;;;5158796;27;20104;-85
2022/10/23 00:30:22;;;;;;;5.45;2.92;;;;;;;;;;5153919;27;20195;-84
2022/10/23 00:32:53;;;;;;;9.23;2.80;;;;;;;;;;5155900;27;20070;-85
2022/10/23 00:35:30;;;;;;;6.22;2.72;;;;;;;;;;5159389;27;20050;-85
2022/10/23 00:38:07;;;;;;;7.40;3.53;;;;;;;;;;5158661;27;20074;-85
2022/10/23 00:40:45;;;;;;;;;;;;;;;;;;;;;
2022/10/23 00:43:20;;;;;;;7.03;3.10;;;;;;;;;;5128623;27;20074;-84
2022/10/23 00:45:55;;;;;;;8.52;3.08;;;;;;;;;;5160099;27;20036;-84
2022/10/23 00:48:41;;;;;;;7.07;3.55;;;;;;;;;;5150776;27;20058;-85
2022/10/23 00:51:14;;;;;;;7.18;3.80;;;;;;;;;;5159668;27;20057;-84
2022/10/23 00:53:45;;;;;;;8.48;3.45;;;;;;;;;;5156259;27;20039;-84
2022/10/23 00:56:23;;;;;;;6.30;3.55;;;;;;;;;;5158021;27;20043;-85
2022/10/23 00:58:52;;;;;;;9.30;3.58;;;;;;;;;;5154032;27;20926;-85
2022/10/23 01:01:23;;;;;;;5.75;2.63;;;;;;;;;;5161723;27;20055;-85
2022/10/23 01:03:58;;;;;;;4.85;2.78;;;;;;;;;;5159409;27;20051;-85
2022/10/23 01:06:50;;;;;;;4.22;2.33;;;;;;;;;;5158528;27;20051;-85
2022/10/23 01:09:30;;;;;;;8.07;2.90;;;;;;;;;;5128166;27;20059;-85
2022/10/23 01:12:22;;;;;;;4.85;3.03;;;;;;;;;;5126122;27;20445;-85
2022/10/23 01:15:00;;;;;;;8.07;2.92;;;;;;;;;;5112492;27;20055;-85
2022/10/23 01:17:36;;;;;;;7.95;3.60;;;;;;;;;;5131979;27;20054;-85
2022/10/23 01:20:25;;;;;;;12.60;3.47;;;;;;;;;;5110934;27;20044;-84
2022/10/23 01:23:19;;;;;;;6.68;3.70;;;;;;;;;;5132227;27;20706;-85
2022/10/23 01:26:19;;;;;;;6.57;3.80;;;;;;;;;;5118612;27;20078;-85
2022/10/23 01:29:13;;;;;;;;;;;;;;;;;;;;;
2022/10/23 01:32:07;;;;;;;11.02;3.95;;;;;;;;;;5127178;27;20162;-85
2022/10/23 01:34:56;;;;;;;8.60;3.78;;;;;;;;;;5114548;27;20067;-84
2022/10/23 01:38:02;;;;;;;;;;;;;;;;;;;;;
2022/10/23 01:40:40;;;;;;;11.40;3.20;;;;;;;;;;5103829;27;20116;-85
2022/10/23 01:43:12;;;;;;;9.73;3.50;;;;;;;;;;5127570;27;20087;-84
2022/10/23 01:45:42;;;;;;;6.78;3.10;;;;;;;;;;5130546;27;20191;-85
2022/10/23 01:48:15;;;;;;;14.95;3.35;;;;;;;;;;5162321;27;20043;-85
2022/10/23 01:51:00;;;;;;;6.85;3.00;;;;;;;;;;5106457;27;20043;-86
2022/10/23 01:53:31;;;;;;;9.32;3.10;;;;;;;;;;5152947;27;20517;-85
2022/10/23 01:56:03;;;;;;;3.83;2.30;;;;;;;;;;5158149;27;20105;-85
2022/10/23 01:58:35;;;;;;;3.63;2.13;;;;;;;;;;5162056;27;20942;-84
2022/10/23 02:01:07;;;;;;;2.65;1.88;;;;;;;;;;5156404;27;20062;-84
2022/10/23 02:03:51;;;;;;;2.83;1.77;;;;;;;;;;5160912;27;20329;-85
2022/10/23 02:06:36;;;;;;;4.78;1.83;;;;;;;;;;5161077;27;20848;-84
2022/10/23 02:09:18;;;;;;;2.35;1.70;;;;;;;;;;5156698;27;20481;-84
2022/10/23 02:12:07;;;;;;;2.15;1.50;;;;;;;;;;5133061;27;20047;-85
2022/10/23 02:14:51;;;;;;;2.22;1.63;;;;;;;;;;5161453;27;20054;-85
2022/10/23 02:17:40;;;;;;;2.80;1.88;;;;;;;;;;5152157;27;20051;-85
2022/10/23 02:20:40;;;;;;;1.63;1.35;;;;;;;;;;5145596;27;20058;-85
2022/10/23 02:23:23;;;;;;;1.00;1.00;;;;;;;;;;5164424;27;20093;-85
2022/10/23 02:26:00;;;;;;;3.38;2.28;;;;;;;;;;5156165;27;20508;-85
2022/10/23 02:28:30;;;;;;;;;;;;;;;;;;5161483;27;20085;-85
2022/10/23 02:31:09;;;;;;;8.30;3.47;;;;;;;;;;5159203;27;42426;-84
2022/10/23 02:33:53;;;;;;;6.45;3.60;;;;;;;;;;5154062;27;20143;-85
2022/10/23 02:36:24;;;;;;;12.15;4.00;;;;;;;;;;5160630;27;20803;-85
2022/10/23 02:39:08;;;;;;;9.38;4.03;;;;;;;;;;5160858;27;20055;-85
2022/10/23 02:42:00;;;;;;;11.82;3.85;;;;;;;;;;5163727;27;20035;-85
2022/10/23 02:44:47;;;;;;;7.22;3.00;;;;;;;;;;5135693;27;20991;-86
2022/10/23 02:47:46;;;;;;;5.95;3.70;;;;;;;;;;5120269;27;20635;-85
2022/10/23 02:50:36;;;;;;;7.85;4.40;;;;;;;;;;5074064;28;20774;-84
2022/10/23 02:53:14;;;;;;;15.35;4.18;;;;;;;;;;5076214;28;21040;-84
2022/10/23 02:55:44;;;;;;;9.10;3.92;;;;;;;;;;5071280;28;20446;-85
2022/10/23 02:58:27;;;;;;;14.57;4.93;;;;;;;;;;5076274;28;20052;-84
2022/10/23 03:01:08;;;;;;;14.75;4.55;;;;;;;;;;5076247;28;20055;-85
2022/10/23 03:03:45;;;;;;;9.00;5.20;;;;;;;;;;5071686;28;20060;-84
2022/10/23 03:06:25;;;;;;;8.45;4.53;;;;;;;;;;5073562;28;20860;-85
2022/10/23 03:09:06;;;;;;;;;;;;;;;;;;5060188;28;20057;-85
2022/10/23 03:11:43;;;;;;;10.85;3.92;;;;;;;;;;5062808;28;44059;-84
2022/10/23 03:14:13;;;;;;;11.25;4.72;;;;;;;;;;5073161;28;20052;-85
2022/10/23 03:16:44;;;;;;;8.35;4.72;;;;;;;;;;5072982;28;20048;-84
2022/10/23 03:19:26;;;;;;;13.57;4.60;;;;;;;;;;5068403;28;20057;-85
2022/10/23 03:22:12;;;;;;;8.47;4.70;;;;;;;;;;5070319;28;20060;-85
2022/10/23 03:24:47;;;;;;;8.40;4.22;;;;;;;;;;5078651;28;20633;-85
2022/10/23 03:27:16;;;;;;;7.35;4.30;;;;;;;;;;5108993;27;20055;-85
2022/10/23 03:30:01;;;;;;;7.38;3.85;;;;;;;;;;5129065;27;20083;-85
2022/10/23 03:32:36;;;;;;;7.40;4.32;;;;;;;;;;5153659;27;20084;-84
2022/10/23 03:35:11;;;;;;;9.82;4.18;;;;;;;;;;5155425;27;20062;-85
2022/10/23 03:37:42;;;;;;;14.10;4.45;;;;;;;;;;5160981;27;20046;-84
2022/10/23 03:40:17;;;;;;;14.40;5.28;;;;;;;;;;5155239;27;20119;-85
2022/10/23 03:42:51;;;;;;;12.90;4.97;;;;;;;;;;5153912;27;21142;-84
2022/10/23 03:45:18;;;;;;;10.77;4.97;;;;;;;;;;5154269;27;20051;-84
2022/10/23 03:47:49;;;;;;;9.93;4.90;;;;;;;;;;5154434;27;20124;-85
2022/10/23 03:50:21;;;;;;;22.77;5.22;;;;;;;;;;5155230;27;20067;-85
2022/10/23 03:52:51;;;;;;;13.43;5.10;;;;;;;;;;5156233;27;20968;-85
2022/10/23 03:55:24;;;;;;;16.25;5.15;;;;;;;;;;5155428;27;20083;-85
2022/10/23 03:58:06;;;;;;;13.10;4.57;;;;;;;;;;5075315;27;20056;-85
2022/10/23 04:00:51;;;;;;;9.88;5.03;;;;;;;;;;5090230;27;20051;-85
2022/10/23 04:03:34;;;;;;;13.02;4.25;;;;;;;;;;5092513;27;20048;-85
2022/10/23 04:06:06;;;;;;;10.68;4.60;;;;;;;;;;5089050;27;20083;-84
2022/10/23 04:09:10;;;;;;;8.05;4.07;;;;;;;;;;4993451;28;20406;-84
2022/10/23 04:11:55;;;;;;;8.13;4.25;;;;;;;;;;4989642;28;20120;-85
2022/10/23 04:17:27;;;;;;;10.00;5.35;;;;;;;;;;4950879;28;20110;-85
2022/10/23 04:20:04;;;;;;;11.90;4.93;;;;;;;;;;4990081;28;20063;-85
2022/10/23 04:22:33;;;;;;;10.15;5.20;;;;;;;;;;4990411;28;20076;-84
2022/10/23 04:25:05;;;;;;;15.65;5.95;;;;;;;;;;4992217;28;20054;-85
2022/10/23 04:27:49;;;;;;;12.30;4.80;;;;;;;;;;4991064;28;20571;-85
2022/10/23 04:30:26;;;;;;;7.38;3.92;;;;;;;;;;4994822;28;20042;-85
2022/10/23 04:32:55;;;;;;;9.45;4.38;;;;;;;;;;5002095;28;20106;-84
2022/10/23 04:35:28;;;;;;;8.73;4.13;;;;;;;;;;5032798;28;20566;-85
2022/10/23 04:37:58;;;;;;;9.10;4.78;;;;;;;;;;5078975;28;20040;-85
2022/10/23 04:40:37;;;;;;;9.77;4.55;;;;;;;;;;5074558;28;20092;-85
2022/10/23 04:43:15;;;;;;;14.93;6.03;;;;;;;;;;5060156;28;20099;-85
2022/10/23 04:46:13;;;;;;;15.45;6.25;;;;;;;;;;4996316;28;20059;-85
2022/10/23 04:48:53;;;;;;;25.38;6.53;;;;;;;;;;4994706;28;20164;-86
2022/10/23 04:51:33;;;;;;;;;;;;;;;;;;;;;
2022/10/23 04:54:17;;;;;;;12.65;6.65;;;;;;;;;;5071042;28;20052;-86
2022/10/23 04:57:02;;;;;;;15.20;5.90;;;;;;;;;;4995817;28;20063;-85
2022/10/23 04:59:35;;;;;;;18.85;6.85;;;;;;;;;;5028171;28;20056;-85
2022/10/23 05:02:06;;;;;;;17.58;6.63;;;;;;;;;;5051673;28;20032;-85
2022/10/23 05:04:33;;;;;;;14.32;6.78;;;;;;;;;;5074789;28;20049;-85
2022/10/23 05:07:05;;;;;;;14.40;6.75;;;;;;;;;;5075368;28;20060;-85
2022/10/23 05:09:34;;;;;;;17.30;6.85;;;;;;;;;;5091462;27;20050;-85
2022/10/23 05:12:02;;;;;;;11.48;6.25;;;;;;;;;;5157046;27;20051;-85
2022/10/23 05:14:34;;;;;;;14.88;6.20;;;;;;;;;;5156323;27;20047;-86
2022/10/23 05:17:14;;;;;;;19.15;6.95;;;;;;;;;;5159510;27;20772;-85
2022/10/23 05:19:53;;;;;;;16.90;6.43;;;;;;;;;;5161651;27;20156;-85
2022/10/23 05:22:40;;;;;;;14.05;5.88;;;;;;;;;;5113849;27;20086;-85
2022/10/23 05:25:13;;;;;;;13.38;5.72;;;;;;;;;;5150374;27;20065;-85
2022/10/23 05:27:53;;;;;;;25.67;6.68;;;;;;;;;;5155906;27;20051;-86
2022/10/23 05:30:35;;;;;;;10.27;5.43;;;;;;;;;;5155225;27;20055;-85
2022/10/23 05:33:33;;;;;;;14.95;5.78;;;;;;;;;;5159454;27;20047;-85
2022/10/23 05:36:04;;;;;;;11.33;5.63;;;;;;;;;;5154786;27;20050;-85
2022/10/23 05:38:35;;;;;;;12.00;6.25;;;;;;;;;;5158512;27;20138;-85
2022/10/23 05:41:03;;;;;;;21.65;6.68;;;;;;;;;;5154716;27;20623;-85
2022/10/23 05:43:33;;;;;;;12.23;6.57;;;;;;;;;;5153374;27;20101;-85
2022/10/23 05:46:04;;;;;;;14.77;6.30;;;;;;;;;;5157374;27;20050;-85
2022/10/23 05:48:37;;;;;;;12.45;5.97;;;;;;;;;;5152842;27;20070;-85
2022/10/23 05:51:09;;;;;;;22.60;6.03;;;;;;;;;;5159369;27;20074;-85
2022/10/23 05:53:43;;;;;;;12.15;6.00;;;;;;;;;;5164064;27;20059;-85
2022/10/23 05:56:14;;;;;;;14.23;5.85;;;;;;;;;;5156810;27;20070;-85
2022/10/23 05:58:46;;;;;;;15.10;5.50;;;;;;;;;;5158605;27;20089;-86
2022/10/23 06:01:21;;;;;;;13.93;6.00;;;;;;;;;;5163164;27;20043;-85
2022/10/23 06:03:52;;;;;;;15.55;6.35;;;;;;;;;;5158702;27;20035;-84
2022/10/23 06:06:35;;;;;;;11.88;5.90;;;;;;;;;;5159621;27;20051;-85
2022/10/23 06:09:05;;;;;;;13.30;6.43;;;;;;;;;;5160622;27;20043;-85
2022/10/23 06:11:40;;;;;;;16.30;6.47;;;;;;;;;;5159013;27;20058;-85
2022/10/23 06:14:13;;;;;;;16.42;6.25;;;;;;;;;;5155381;27;20261;-85
2022/10/23 06:16:40;;;;;;;10.90;5.57;;;;;;;;;;5153250;27;20924;-85
2022/10/23 06:19:10;;;;;;;13.63;5.93;;;;;;;;;;5153179;27;20053;-85
2022/10/23 06:21:39;;;;;;;16.48;6.13;;;;;;;;;;5154898;27;20249;-85
2022/10/23 06:24:12;;;;;;;11.82;5.90;;;;;;;;;;5156297;27;20050;-85
2022/10/23 06:26:54;;;;;;;12.32;6.13;;;;;;;;;;5151411;27;20139;-85
2022/10/23 06:29:34;;;;;;;15.65;5.68;;;;;;;;;;5158675;27;20051;-85
2022/10/23 06:32:07;;;;;;;12.63;5.53;;;;;;;;;;5149656;27;20093;-85
2022/10/23 06:34:38;;;;;;;13.70;5.75;;;;;;;;;;5155144;27;21221;-85
2022/10/23 06:37:05;;;;;;;17.85;5.85;;;;;;;;;;5156168;27;20071;-85
2022/10/23 06:39:34;;;;;;;15.05;5.78;;;;;;;;;;5159203;27;20050;-85
2022/10/23 06:42:07;;;;;;;19.33;6.30;;;;;;;;;;5154205;27;20101;-85
2022/10/23 06:44:42;;;;;;;12.63;5.75;;;;;;;;;;5158287;27;20050;-84
2022/10/23 06:47:11;;;;;;;11.52;5.65;;;;;;;;;;5151376;27;20047;-84
2022/10/23 06:49:41;;;;;;;13.48;5.78;;;;;;;;;;5151222;27;20050;-85
2022/10/23 06:52:10;;;;;;;10.23;5.53;;;;;;;;;;5158119;27;20933;-85
2022/10/23 06:54:57;;;;;;;12.75;5.80;;;;;;;;;;5155884;27;20140;-85
2022/10/23 06:57:24;;;;;;;11.00;5.05;;;;;;;;;;5156022;27;20043;-85
2022/10/23 06:59:51;;;;;;;14.52;5.85;;;;;;;;;;5158245;27;20127;-85
2022/10/23 07:02:26;;;;;;;11.45;5.55;;;;;;;;;;5147941;27;20051;-85
2022/10/23 07:04:53;;;;;;;12.30;5.57;;;;;;;;;;5153705;27;20039;-85
2022/10/23 07:07:30;;;;;;;8.88;4.75;;;;;;;;;;5155638;27;20054;-85
2022/10/23 07:09:58;;;;;;;14.48;5.03;;;;;;;;;;5155225;27;20047;-85
2022/10/23 07:12:46;;;;;;;13.68;5.57;;;;;;;;;;5153562;27;20042;-85
2022/10/23 07:15:14;;;;;;;12.43;5.40;;;;;;;;;;5159345;27;20054;-85
2022/10/23 07:17:41;;;;;;;8.32;5.05;;;;;;;;;;5156997;27;20050;-85
2022/10/23 07:20:14;;;;;;;27.63;6.15;;;;;;;;;;5159506;27;20055;-85
2022/10/23 07:22:43;;;;;;;10.38;5.50;;;;;;;;;;5155790;27;20133;-84
2022/10/23 07:25:11;;;;;;;15.48;5.53;;;;;;;;;;5163321;27;20051;-85
2022/10/23 07:27:38;;;;;;;12.20;5.55;;;;;;;;;;5153438;27;20059;-84
2022/10/23 07:30:05;;;;;;;9.82;5.38;;;;;;;;;;5152291;27;20047;-84
2022/10/23 07:32:59;;;;;;;13.13;5.72;;;;;;;;;;5154973;27;20039;-84
2022/10/23 07:35:32;;;;;;;13.82;5.32;;;;;;;;;;5152654;27;20047;-84
2022/10/23 07:38:06;;;;;;;11.10;4.80;;;;;;;;;;5149643;27;20050;-85
2022/10/23 07:40:36;;;;;;;16.25;5.47;;;;;;;;;;5152321;27;20458;-84
2022/10/23 07:43:03;;;;;;;17.33;5.43;;;;;;;;;;5155169;27;20478;-85
2022/10/23 07:45:30;;;;;;;15.02;5.60;;;;;;;;;;5153029;27;20047;-85
2022/10/23 07:47:57;;;;;;;16.63;5.30;;;;;;;;;;5156463;27;20051;-84
2022/10/23 07:50:27;;;;;;;14.52;5.45;;;;;;;;;;5152777;27;20051;-85
2022/10/23 07:53:01;;;;;;;14.82;4.80;;;;;;;;;;5152851;27;20057;-85
2022/10/23 07:55:36;;;;;;;14.07;5.63;;;;;;;;;;5157168;27;20051;-85
2022/10/23 07:58:10;;;;;;;12.70;5.35;;;;;;;;;;5159265;27;21485;-85
2022/10/23 08:00:38;;;;;;;11.35;5.55;;;;;;;;;;5159228;27;20100;-85
2022/10/23 08:03:11;;;;;;;8.05;5.00;;;;;;;;;;5158919;27;20054;-85
2022/10/23 08:05:39;;;;;;;11.48;5.40;;;;;;;;;;5160689;27;20047;-85
2022/10/23 08:08:12;;;;;;;11.63;5.45;;;;;;;;;;5151771;27;20077;-85
2022/10/23 08:10:40;;;;;;;11.48;4.63;;;;;;;;;;5156730;27;20058;-84
2022/10/23 08:13:09;;;;;;;11.80;5.40;;;;;;;;;;5156400;27;20064;-85
2022/10/23 08:15:39;;;;;;;14.13;5.13;;;;;;;;;;5156391;27;20054;-85
2022/10/23 08:18:10;;;;;;;15.20;5.03;;;;;;;;;;5151546;27;20055;-85
2022/10/23 08:20:42;;;;;;;9.73;4.90;;;;;;;;;;5156158;27;20489;-85
2022/10/23 08:23:19;;;;;;;12.57;4.32;;;;;;;;;;5150364;27;20062;-86
2022/10/23 08:25:48;;;;;;;10.25;4.15;;;;;;;;;;5155814;27;20070;-84
2022/10/23 08:28:15;;;;;;;14.32;5.00;;;;;;;;;;5160285;27;20794;-84
2022/10/23 08:30:48;;;;;;;10.55;4.63;;;;;;;;;;5155901;27;20078;-85
2022/10/23 08:33:26;;;;;;;8.50;4.88;;;;;;;;;;5164473;27;21072;-85
2022/10/23 08:35:59;;;;;;;10.07;5.25;;;;;;;;;;5166936;27;20059;-85
2022/10/23 08:38:47;;;;;;;11.07;4.20;;;;;;;;;;5162670;27;20043;-85
2022/10/23 08:41:34;;;;;;;8.55;4.40;;;;;;;;;;5162646;27;20046;-85
2022/10/23 08:44:09;;;;;;;10.00;4.20;;;;;;;;;;5162928;27;20062;-85
2022/10/23 08:46:47;;;;;;;8.88;4.40;;;;;;;;;;5158160;27;20505;-86
2022/10/23 08:49:19;;;;;;;9.65;4.65;;;;;;;;;;5159016;27;20054;-85
2022/10/23 08:52:00;;;;;;;8.43;4.25;;;;;;;;;;5155946;27;20050;-85
2022/10/23 08:55:08;;;;;;;12.00;4.55;;;;;;;;;;5163619;27;20045;-85
2022/10/23 08:57:50;;;;;;;10.60;4.28;;;;;;;;;;5144325;27;20035;-85
2022/10/23 09:00:40;;;;;;;13.23;4.40;;;;;;;;;;5156952;27;20051;-85
2022/10/23 09:03:11;;;;;;;10.77;4.38;;;;;;;;;;5159140;27;20535;-85
2022/10/23 09:06:17;;;;;;;11.00;4.28;;;;;;;;;;5155742;27;20100;-85
2022/10/23 09:08:53;;;;;;;8.18;4.18;;;;;;;;;;5098022;28;20048;-85
2022/10/23 09:11:46;;;;;;;7.43;3.30;;;;;;;;;;5077370;28;20055;-85
2022/10/23 09:14:14;;;;;;;10.93;3.92;;;;;;;;;;5098068;28;20052;-85
2022/10/23 09:16:48;;;;;;;6.97;3.63;;;;;;;;;;5099572;28;20044;-85
2022/10/23 09:19:20;;;;;;;7.55;4.07;;;;;;;;;;5090979;28;20055;-84
2022/10/23 09:21:49;;;;;;;8.40;3.90;;;;;;;;;;5087949;28;20047;-85
2022/10/23 09:24:22;;;;;;;7.45;4.20;;;;;;;;;;5089333;28;20863;-84
2022/10/23 09:27:10;;;;;;;;;;;;;;;;;;4999051;28;20054;-85
2022/10/23 09:29:37;;;;;;;14.45;4.03;;;;;;;;;;5000545;28;44828;-85
2022/10/23 09:32:05;;;;;;;8.77;3.45;;;;;;;;;;4999904;28;20592;-85
2022/10/23 09:34:36;;;;;;;6.45;3.42;;;;;;;;;;4999964;28;20832;-85
2022/10/23 09:37:40;;;;;;;9.43;3.55;;;;;;;;;;5000524;28;20050;-85
2022/10/23 09:40:16;;;;;;;8.02;3.63;;;;;;;;;;5022949;28;20487;-84
2022/10/23 09:43:17;;;;;;;9.30;3.78;;;;;;;;;;5077109;28;20179;-85
2022/10/23 09:45:58;;;;;;;10.35;3.60;;;;;;;;;;5050794;28;20139;-85
2022/10/23 09:48:26;;;;;;;7.30;3.30;;;;;;;;;;5081040;28;20052;-85
2022/10/23 09:50:57;;;;;;;9.10;3.55;;;;;;;;;;5065717;28;20196;-84
2022/10/23 09:53:30;;;;;;;5.55;3.38;;;;;;;;;;5080466;28;20052;-84
2022/10/23 09:55:58;;;;;;;;;;;;;;;;;;5077920;28;20056;-85
2022/10/23 09:58:42;;;;;;;7.05;3.25;;;;;;;;;;5076481;28;42341;-85
2022/10/23 10:01:22;;;;;;;10.93;3.25;;;;;;;;;;5079631;28;20037;-85
2022/10/23 10:03:58;;;;;;;8.18;3.38;;;;;;;;;;5106723;27;20579;-85
2022/10/23 10:06:36;;;;;;;8.88;3.75;;;;;;;;;;5153723;27;20050;-85
2022/10/23 10:09:07;;;;;;;10.00;3.42;;;;;;;;;;5151469;27;20057;-84
2022/10/23 10:12:02;;;;;;;6.80;3.15;;;;;;;;;;5158973;27;20046;-85
2022/10/23 10:14:43;;;;;;;8.07;3.05;;;;;;;;;;5158783;27;20857;-84
2022/10/23 10:17:29;;;;;;;9.27;3.40;;;;;;;;;;5153999;27;20170;-85
2022/10/23 10:20:06;;;;;;;9.82;3.30;;;;;;;;;;5153380;27;20137;-84
2022/10/23 10:22:54;;;;;;;5.45;2.88;;;;;;;;;;5150038;27;20047;-84
2022/10/23 10:25:28;;;;;;;8.35;3.25;;;;;;;;;;5153920;27;20485;-84
2022/10/23 10:28:09;;;;;;;14.10;3.10;;;;;;;;;;5150549;27;20216;-84
2022/10/23 10:30:57;;;;;;;6.13;2.83;;;;;;;;;;5154515;27;20890;-85
2022/10/23 10:33:48;;;;;;;9.23;3.00;;;;;;;;;;5140753;27;20047;-85
2022/10/23 10:36:25;;;;;;;12.25;3.90;;;;;;;;;;5150571;27;20050;-85
2022/10/23 10:39:02;;;;;;;16.63;3.10;;;;;;;;;;5157875;27;20050;-85
2022/10/23 10:41:47;;;;;;;8.07;3.20;;;;;;;;;;5154024;27;20046;-85
2022/10/23 10:44:37;;;;;;;8.93;3.20;;;;;;;;;;5151599;27;20086;-84
2022/10/23 10:47:14;;;;;;;6.05;3.20;;;;;;;;;;5150841;27;20047;-85
2022/10/23 10:50:07;;;;;;;6.18;2.90;;;;;;;;;;5147915;27;20453;-85
2022/10/23 10:52:53;;;;;;;8.95;2.97;;;;;;;;;;5153220;27;20897;-85
2022/10/23 10:55:35;;;;;;;11.13;3.00;;;;;;;;;;5161413;27;20096;-85
2022/10/23 10:58:12;;;;;;;5.97;2.67;;;;;;;;;;5153992;27;20061;-85
2022/10/23 11:00:39;;;;;;;6.45;2.90;;;;;;;;;;5150789;27;20211;-84
2022/10/23 11:03:24;;;;;;;6.18;2.70;;;;;;;;;;5150656;27;20075;-85
2022/10/23 11:06:02;;;;;;;5.45;2.50;;;;;;;;;;5151678;27;20051;-85
2022/10/23 11:08:34;;;;;;;7.82;2.47;;;;;;;;;;5154701;27;20046;-85
2022/10/23 11:11:35;;;;;;;9.60;2.50;;;;;;;;;;5152685;27;20090;-85
2022/10/23 11:14:05;;;;;;;6.13;2.53;;;;;;;;;;5156414;27;20050;-85
2022/10/23 11:16:34;;;;;;;4.82;2.72;;;;;;;;;;5159810;27;20861;-85
2022/10/23 11:19:14;;;;;;;8.65;2.88;;;;;;;;;;5158150;27;20093;-85
2022/10/23 11:22:02;;;;;;;5.38;2.70;;;;;;;;;;5153267;27;20066;-85
2022/10/23 11:24:44;;;;;;;5.30;2.67;;;;;;;;;;5153042;27;20051;-85
2022/10/23 11:27:22;;;;;;;7.43;2.80;;;;;;;;;;5155123;27;20741;-85
2022/10/23 11:29:50;;;;;;;;;;;;;;;;;;5154728;27;20054;-85
2022/10/23 11:32:37;;;;;;;5.15;2.45;;;;;;;;;;5157948;27;43948;-85
2022/10/23 11:35:29;;;;;;;4.15;2.30;;;;;;;;;;5155353;27;20078;-85
2022/10/23 11:38:03;;;;;;;20.75;3.00;;;;;;;;;;5155760;27;20865;-85
2022/10/23 11:40:33;;;;;;;6.70;2.35;;;;;;;;;;5157483;27;20482;-85
2022/10/23 11:43:10;;;;;;;4.80;1.92;;;;;;;;;;5159738;27;20096;-85
2022/10/23 11:45:41;;;;;;;9.07;2.35;;;;;;;;;;5149491;27;20055;-84
2022/10/23 11:48:46;;;;;;;4.30;2.10;;;;;;;;;;5156007;27;20049;-85
2022/10/23 11:51:30;;;;;;;5.55;2.10;;;;;;;;;;5152851;27;20066;-85
2022/10/23 11:54:07;;;;;;;8.18;2.33;;;;;;;;;;5155692;27;20108;-85
2022/10/23 11:56:34;;;;;;;5.72;2.30;;;;;;;;;;5148477;27;20074;-85
2022/10/23 11:59:19;;;;;;;5.88;2.25;;;;;;;;;;5162791;27;20488;-85
2022/10/23 12:02:08;;;;;;;4.03;2.17;;;;;;;;;;5159510;27;20503;-85
2022/10/23 12:04:54;;;;;;;7.22;2.25;;;;;;;;;;5160143;27;20046;-86
2022/10/23 12:07:27;;;;;;;5.50;2.30;;;;;;;;;;5159775;27;20104;-85
2022/10/23 12:10:23;;;;;;;5.25;1.92;;;;;;;;;;5158391;27;20107;-85
2022/10/23 12:13:18;;;;;;;9.70;2.20;;;;;;;;;;5162877;27;20049;-86
2022/10/23 12:15:54;;;;;;;7.78;2.50;;;;;;;;;;5144672;27;20458;-85
2022/10/23 12:18:26;;;;;;;6.85;2.20;;;;;;;;;;5162502;27;20203;-85
2022/10/23 12:20:58;;;;;;;5.82;1.92;;;;;;;;;;5161838;27;20083;-85
2022/10/23 12:23:48;;;;;;;6.15;1.92;;;;;;;;;;5155892;27;20567;-85
2022/10/23 12:26:49;;;;;;;6.15;2.17;;;;;;;;;;5115962;27;20083;-85
2022/10/23 12:29:47;;;;;;;3.78;2.20;;;;;;;;;;5081590;27;20338;-85
2022/10/23 12:32:58;;;;;;;10.48;2.15;;;;;;;;;;5120525;27;20050;-84
2022/10/23 12:38:39;;;;;;;3.75;2.33;;;;;;;;;;5081236;27;20994;-84
2022/10/23 12:41:28;;;;;;;6.45;1.90;;;;;;;;;;5097742;27;20270;-84
2022/10/23 12:43:58;;;;;;;7.60;2.28;;;;;;;;;;5129657;27;20051;-85
2022/10/23 12:46:31;;;;;;;7.57;1.90;;;;;;;;;;5156620;27;20682;-85
2022/10/23 12:49:24;;;;;;;9.02;1.90;;;;;;;;;;5161937;27;20046;-84
2022/10/23 12:52:00;;;;;;;9.18;1.98;;;;;;;;;;5159570;27;20094;-86
2022/10/23 12:54:50;;;;;;;5.72;1.80;;;;;;;;;;5153426;27;24101;-85
2022/10/23 12:57:44;;;;;;;7.07;1.88;;;;;;;;;;5156400;27;20703;-85
2022/10/23 13:03:38;;;;;;;8.52;2.45;;;;;;;;;;5154265;27;20047;-85
2022/10/23 13:06:11;;;;;;;4.20;1.63;;;;;;;;;;5157073;27;22305;-85
2022/10/23 13:09:33;;;;;;;4.45;1.77;;;;;;;;;;5159189;27;20051;-85
2022/10/23 13:15:07;;;;;;;7.57;1.92;;;;;;;;;;5092367;27;20052;-85
2022/10/23 13:17:39;;;;;;;2.72;1.70;;;;;;;;;;5093150;28;21757;-85
2022/10/23 13:20:34;;;;;;;4.22;2.22;;;;;;;;;;5034771;28;20050;-85
2022/10/23 13:23:30;;;;;;;5.50;1.92;;;;;;;;;;5023880;28;20057;-84
2022/10/23 13:26:05;;;;;;;4.60;1.80;;;;;;;;;;5086433;27;20063;-84
2022/10/23 13:28:42;;;;;;;4.45;2.08;;;;;;;;;;5097282;28;20056;-84
2022/10/23 13:34:25;;;;;;;3.95;1.92;;;;;;;;;;5091707;27;20581;-85
2022/10/23 13:37:03;;;;;;;2.67;2.00;;;;;;;;;;5092421;28;20552;-85
2022/10/23 13:39:32;;;;;;;4.82;1.88;;;;;;;;;;5103461;28;20056;-84
2022/10/23 13:42:03;;;;;;;;;;;;;;;;;;5096735;28;20044;-84
2022/10/23 13:44:58;;;;;;;7.18;2.00;;;;;;;;;;5100250;28;44055;-85
2022/10/23 13:47:45;;;;;;;5.78;2.05;;;;;;;;;;5085372;28;20052;-84
2022/10/23 13:50:25;;;;;;;4.85;1.88;;;;;;;;;;5151779;27;20146;-85
2022/10/23 13:53:05;;;;;;;3.63;1.80;;;;;;;;;;5158987;27;20723;-85
2022/10/23 13:55:35;;;;;;;;;;;;;;;;;;5157528;27;20934;-85
2022/10/23 13:58:10;;;;;;;7.78;2.00;;;;;;;;;;5158322;27;43332;-85
2022/10/23 14:01:08;;;;;;;5.22;1.92;;;;;;;;;;5158643;27;20042;-84
2022/10/23 14:03:48;;;;;;;9.00;2.42;;;;;;;;;;5156655;27;20051;-84
2022/10/23 14:06:17;;;;;;;6.55;2.13;;;;;;;;;;5142924;27;20666;-84
2022/10/23 14:08:59;;;;;;;4.32;1.98;;;;;;;;;;5157346;27;20058;-85
2022/10/23 14:11:41;;;;;;;6.47;2.45;;;;;;;;;;5158657;27;20059;-85
2022/10/23 14:14:41;;;;;;;8.02;2.38;;;;;;;;;;5162296;27;20055;-85
2022/10/23 14:17:21;;;;;;;5.28;2.70;;;;;;;;;;5154112;27;20195;-84
2022/10/23 14:19:51;;;;;;;5.95;2.25;;;;;;;;;;5161013;27;20049;-84
2022/10/23 14:22:21;;;;;;;5.18;2.20;;;;;;;;;;5160478;27;20047;-84
2022/10/23 14:24:48;;;;;;;6.28;2.20;;;;;;;;;;5161076;27;20055;-84
2022/10/23 14:27:18;;;;;;;3.55;2.05;;;;;;;;;;5155802;27;20051;-84
2022/10/23 14:29:54;;;;;;;11.80;2.10;;;;;;;;;;5159611;27;20042;-84
2022/10/23 14:32:24;;;;;;;5.00;2.00;;;;;;;;;;5159884;27;20050;-84
2022/10/23 14:34:53;;;;;;;7.80;2.15;;;;;;;;;;5154215;27;20153;-84
2022/10/23 14:38:00;;;;;;;10.13;2.08;;;;;;;;;;5117023;27;20048;-84
2022/10/23 14:40:42;;;;;;;6.65;2.15;;;;;;;;;;5118299;27;20055;-84
2022/10/23 14:43:15;;;;;;;4.50;2.20;;;;;;;;;;5100947;27;20048;-84
2022/10/23 14:46:30;;;;;;;5.93;2.30;;;;;;;;;;5117657;27;20055;-84
2022/10/23 14:49:02;;;;;;;3.65;2.20;;;;;;;;;;5087685;27;20044;-84
2022/10/23 14:54:52;;;;;;;6.10;2.17;;;;;;;;;;5038803;28;20056;-83
2022/10/23 14:57:27;;;;;;;4.95;2.30;;;;;;;;;;5021727;28;20060;-84
2022/10/23 15:03:04;;;;;;;4.28;2.22;;;;;;;;;;5037721;28;21016;-85
2022/10/23 15:05:41;;;;;;;5.60;2.38;;;;;;;;;;5037622;28;20554;-84
2022/10/23 15:08:56;;;;;;;9.35;2.28;;;;;;;;;;5057367;27;20048;-84
2022/10/23 15:11:13;;;;;;;5.25;2.95;;;;;;;;;;5087644;27;20062;-84
2022/10/23 15:14:03;;;;;;;4.10;2.40;;;;;;;;;;5089092;27;20135;-84
2022/10/23 15:16:31;;;;;;;10.68;2.67;;;;;;;;;;5090164;27;20043;-83
2022/10/23 15:19:19;;;;;;;7.63;2.53;;;;;;;;;;5089627;27;20695;-85
2022/10/23 15:22:07;;;;;;;9.38;2.60;;;;;;;;;;5093678;27;20203;-84
2022/10/23 15:24:41;;;;;;;5.85;2.40;;;;;;;;;;5073507;27;20040;-84
2022/10/23 15:27:19;;;;;;;8.95;2.55;;;;;;;;;;5095736;27;20048;-84
2022/10/23 15:29:50;;;;;;;5.32;2.58;;;;;;;;;;5110684;27;20051;-84
2022/10/23 15:32:17;;;;;;;6.13;2.55;;;;;;;;;;5155392;27;20108;-84
2022/10/23 15:35:13;;;;;;;5.13;2.70;;;;;;;;;;5158020;27;20115;-84
2022/10/23 15:38:11;;;;;;;5.68;2.60;;;;;;;;;;5149898;27;20039;-84
2022/10/23 15:41:06;;;;;;;4.60;2.30;;;;;;;;;;5141299;27;20059;-84
2022/10/23 15:43:53;;;;;;;5.57;3.08;;;;;;;;;;5145139;27;20047;-85
2022/10/23 15:46:34;;;;;;;5.10;2.25;;;;;;;;;;5155419;27;20082;-84
2022/10/23 15:49:04;;;;;;;13.23;2.50;;;;;;;;;;5157236;27;20077;-85
2022/10/23 15:51:55;;;;;;;8.63;2.50;;;;;;;;;;5153263;27;20799;-85
2022/10/23 15:54:25;;;;;;;4.80;2.38;;;;;;;;;;5158612;27;20862;-85
2022/10/23 15:56:58;;;;;;;4.68;2.53;;;;;;;;;;5158125;27;20054;-84
2022/10/23 15:59:30;;;;;;;6.13;2.70;;;;;;;;;;5160036;27;20038;-84
2022/10/23 16:02:29;;;;;;;6.05;2.50;;;;;;;;;;5156737;27;20136;-84
2022/10/23 16:04:59;;;;;;;8.95;2.30;;;;;;;;;;5158050;27;20051;-84
2022/10/23 16:07:26;;;;;;;4.20;2.28;;;;;;;;;;5157897;27;20557;-85
2022/10/23 16:10:00;;;;;;;10.43;2.42;;;;;;;;;;5152739;27;20055;-84
2022/10/23 16:12:31;;;;;;;11.60;2.80;;;;;;;;;;5162841;27;20730;-84